Главная страница
METAR-TAF:

METAR-TAF

Аэропорты :

Международный аэропорт имени Макдональда — Картье

Оттава, Онтарио, Канада

широта: 45-19N, долгота: 075-40W, высота над уровнем моря: 116 м

Текущие метеонаблюдения

Эта сводка был подготовлена 35 минут назад, в 09:00 UTC
Ветер 10 Узел от северный с порывами до 15 Узел
Температура 12°C
Влажность 71%
Давление 1016 hPa
Видимость: 24.1 км
небольшая облачность на высоте 2000 фута

METAR: CYOW 250900Z 35010G15KT 15SM FEW020 12/07 A3001 RMK SC1 SC TR SLP164

Время: 05:35 (09:35 UTC)

Прогноз

Эта сводка был подготовлена 57 минут назад, в 08:38 UTC
Прогноз действительный с 25-го 09 UTC до 26-го 06 UTC
Ветер 8 Узел от северно-северо-западный
Видимость: 10 км
ясное небо
изменения
С 25-го 13 UTC до 25-го 15 UTC
Ветер 12 Узел от северный с порывами до 22 Узел
изменения
С 25-го 23 UTC до 26-го 01 UTC
Ветер 8 Узел от северно-северо-западный

TAF: CYOW 250838Z 2509/2606 33008KT P6SM SKC BECMG 2513/2515 35012G22KT BECMG 2523/2601 33008KT RMK NXT FCST BY 251200Z

Метеонаблюдения и прогнозы для более 4000 аэропортов (сводки METAR и TAF).

Имеющиеся станции представлены на карте желтыми и красными точками.

Чтобы увидеть название станции, наведите на нее мышь.

Затем щелкните, чтобы увидеть метеонаблюдения и метеопрогнозы.

Управление картой: чтобы увеличить масштаб, щелкните зеленые кнопки с черным крестиком; чтобы уменьшить масштаб, щелкните зеленую кнопку с тире; для просмотра соседних карт щелкайте зеленые стрелки.


METAR-TAF: